CheckWX is a tool to help pilots better visualize weather data.  It is not intended as a substitute for an official pre-flight weather briefing.

16:19:55 UTC

CYLA METAR
Aupaluk Airport
Aupaluk, Canada
Current

16 hours ago

CYLA 220000Z 26009G23KT 15SM -RA SCT035 BKN095 11/08 A2964 RMK SC3AC4 SLP041
Observed
Jul-22 @ 00:00 UTC
Wind
  • 260° at 9 KTS
  • Gusting to 23 KTS
Visibility
15 SM
Flight Rules
VFR
Conditions
Light Rain
Cloud Levels
  • Scattered at 3,500' AGL
  • Broken at 9,500' AGL
Temperature
11°C / 52°F
Dewpoint
C / 46°F
Humidity
82%
Altimeter
29.64" Hg
Pressure
1003.72 hPa